sensor_id;sensor_type;location;lat;lon;timestamp;P1;durP1;ratioP1;P2;durP2;ratioP2
12135;SDS011;6131;56.420;15.548;2022-10-16T00:00:38;34.30;;;21.47;;
12135;SDS011;6131;56.420;15.548;2022-10-16T00:03:05;35.53;;;21.80;;
12135;SDS011;6131;56.420;15.548;2022-10-16T00:05:31;34.37;;;21.17;;
12135;SDS011;6131;56.420;15.548;2022-10-16T00:07:57;38.73;;;21.53;;
12135;SDS011;6131;56.420;15.548;2022-10-16T00:10:23;37.50;;;21.93;;
12135;SDS011;6131;56.420;15.548;2022-10-16T00:12:49;38.10;;;22.10;;
12135;SDS011;6131;56.420;15.548;2022-10-16T00:15:15;41.67;;;22.73;;
12135;SDS011;6131;56.420;15.548;2022-10-16T00:17:42;36.70;;;20.93;;
12135;SDS011;6131;56.420;15.548;2022-10-16T00:20:08;37.97;;;22.10;;
12135;SDS011;6131;56.420;15.548;2022-10-16T00:22:34;37.53;;;21.80;;
12135;SDS011;6131;56.420;15.548;2022-10-16T00:25:00;40.67;;;22.93;;
12135;SDS011;6131;56.420;15.548;2022-10-16T00:27:26;37.43;;;22.70;;
12135;SDS011;6131;56.420;15.548;2022-10-16T00:29:52;40.03;;;22.00;;
12135;SDS011;6131;56.420;15.548;2022-10-16T00:32:19;38.43;;;22.73;;
12135;SDS011;6131;56.420;15.548;2022-10-16T00:34:45;38.47;;;22.90;;
12135;SDS011;6131;56.420;15.548;2022-10-16T00:37:11;43.30;;;22.20;;
12135;SDS011;6131;56.420;15.548;2022-10-16T00:39:37;41.20;;;24.00;;
12135;SDS011;6131;56.420;15.548;2022-10-16T00:42:03;36.87;;;21.43;;
12135;SDS011;6131;56.420;15.548;2022-10-16T00:44:49;41.27;;;22.07;;
12135;SDS011;6131;56.420;15.548;2022-10-16T00:52:52;41.67;;;22.13;;
12135;SDS011;6131;56.420;15.548;2022-10-16T00:55:19;36.43;;;21.87;;
12135;SDS011;6131;56.420;15.548;2022-10-16T00:57:45;37.77;;;21.57;;
12135;SDS011;6131;56.420;15.548;2022-10-16T01:00:13;35.30;;;21.83;;
12135;SDS011;6131;56.420;15.548;2022-10-16T01:02:40;36.30;;;22.83;;
12135;SDS011;6131;56.420;15.548;2022-10-16T01:05:06;35.13;;;21.97;;
12135;SDS011;6131;56.420;15.548;2022-10-16T01:10:24;34.40;;;21.53;;
12135;SDS011;6131;56.420;15.548;2022-10-16T01:15:32;32.50;;;20.97;;
12135;SDS011;6131;56.420;15.548;2022-10-16T01:20:33;35.00;;;21.50;;
12135;SDS011;6131;56.420;15.548;2022-10-16T01:28:19;32.13;;;21.33;;
12135;SDS011;6131;56.420;15.548;2022-10-16T01:30:47;30.13;;;21.37;;
12135;SDS011;6131;56.420;15.548;2022-10-16T01:33:20;30.73;;;21.17;;
12135;SDS011;6131;56.420;15.548;2022-10-16T01:35:54;35.03;;;21.30;;
12135;SDS011;6131;56.420;15.548;2022-10-16T01:40:58;30.47;;;20.97;;
12135;SDS011;6131;56.420;15.548;2022-10-16T01:43:27;30.83;;;20.17;;
12135;SDS011;6131;56.420;15.548;2022-10-16T01:45:54;33.00;;;20.50;;
12135;SDS011;6131;56.420;15.548;2022-10-16T01:48:21;28.47;;;19.60;;
12135;SDS011;6131;56.420;15.548;2022-10-16T01:50:51;29.30;;;19.03;;
12135;SDS011;6131;56.420;15.548;2022-10-16T01:53:18;28.53;;;18.77;;
12135;SDS011;6131;56.420;15.548;2022-10-16T01:55:44;25.50;;;18.47;;
12135;SDS011;6131;56.420;15.548;2022-10-16T01:58:12;26.90;;;18.33;;
12135;SDS011;6131;56.420;15.548;2022-10-16T02:00:39;26.77;;;17.80;;
12135;SDS011;6131;56.420;15.548;2022-10-16T02:03:07;26.80;;;17.63;;
12135;SDS011;6131;56.420;15.548;2022-10-16T02:05:37;26.07;;;18.17;;
12135;SDS011;6131;56.420;15.548;2022-10-16T02:08:05;24.97;;;17.20;;
12135;SDS011;6131;56.420;15.548;2022-10-16T02:10:32;25.97;;;17.47;;
12135;SDS011;6131;56.420;15.548;2022-10-16T02:13:17;28.87;;;17.10;;
12135;SDS011;6131;56.420;15.548;2022-10-16T02:15:44;26.03;;;17.10;;
12135;SDS011;6131;56.420;15.548;2022-10-16T02:18:10;23.87;;;17.00;;
12135;SDS011;6131;56.420;15.548;2022-10-16T02:20:40;23.50;;;17.00;;
12135;SDS011;6131;56.420;15.548;2022-10-16T02:23:09;22.33;;;17.03;;
12135;SDS011;6131;56.420;15.548;2022-10-16T02:25:38;27.20;;;16.10;;
12135;SDS011;6131;56.420;15.548;2022-10-16T02:28:14;22.37;;;15.63;;
12135;SDS011;6131;56.420;15.548;2022-10-16T02:30:43;21.90;;;16.13;;
12135;SDS011;6131;56.420;15.548;2022-10-16T02:33:11;25.00;;;15.57;;
12135;SDS011;6131;56.420;15.548;2022-10-16T02:35:38;24.40;;;15.50;;
12135;SDS011;6131;56.420;15.548;2022-10-16T02:38:05;22.17;;;15.33;;
12135;SDS011;6131;56.420;15.548;2022-10-16T02:40:32;20.20;;;15.10;;
12135;SDS011;6131;56.420;15.548;2022-10-16T02:42:58;22.30;;;15.23;;
12135;SDS011;6131;56.420;15.548;2022-10-16T02:45:24;21.30;;;14.97;;
12135;SDS011;6131;56.420;15.548;2022-10-16T02:47:50;22.53;;;15.70;;
12135;SDS011;6131;56.420;15.548;2022-10-16T02:50:16;21.27;;;14.60;;
12135;SDS011;6131;56.420;15.548;2022-10-16T02:52:42;19.87;;;14.23;;
12135;SDS011;6131;56.420;15.548;2022-10-16T02:55:08;20.97;;;14.13;;
12135;SDS011;6131;56.420;15.548;2022-10-16T02:57:34;19.87;;;14.03;;
12135;SDS011;6131;56.420;15.548;2022-10-16T03:00:03;20.17;;;13.90;;
12135;SDS011;6131;56.420;15.548;2022-10-16T03:02:29;19.67;;;13.87;;
12135;SDS011;6131;56.420;15.548;2022-10-16T03:04:55;21.67;;;13.73;;
12135;SDS011;6131;56.420;15.548;2022-10-16T03:07:21;20.63;;;14.50;;
12135;SDS011;6131;56.420;15.548;2022-10-16T03:09:47;21.73;;;14.53;;
12135;SDS011;6131;56.420;15.548;2022-10-16T03:12:13;20.27;;;14.50;;
12135;SDS011;6131;56.420;15.548;2022-10-16T03:14:38;19.13;;;14.40;;
12135;SDS011;6131;56.420;15.548;2022-10-16T03:17:05;19.10;;;13.87;;
12135;SDS011;6131;56.420;15.548;2022-10-16T03:19:31;21.63;;;13.90;;
12135;SDS011;6131;56.420;15.548;2022-10-16T03:21:57;19.80;;;14.33;;
12135;SDS011;6131;56.420;15.548;2022-10-16T03:24:23;18.17;;;13.33;;
12135;SDS011;6131;56.420;15.548;2022-10-16T03:26:49;18.17;;;13.03;;
12135;SDS011;6131;56.420;15.548;2022-10-16T03:29:15;18.23;;;12.50;;
12135;SDS011;6131;56.420;15.548;2022-10-16T03:31:41;18.63;;;12.87;;
12135;SDS011;6131;56.420;15.548;2022-10-16T03:34:07;18.73;;;12.63;;
12135;SDS011;6131;56.420;15.548;2022-10-16T03:36:33;16.47;;;12.87;;
12135;SDS011;6131;56.420;15.548;2022-10-16T03:38:59;19.13;;;12.80;;
12135;SDS011;6131;56.420;15.548;2022-10-16T03:41:25;17.03;;;13.00;;
12135;SDS011;6131;56.420;15.548;2022-10-16T03:43:51;18.23;;;13.17;;
12135;SDS011;6131;56.420;15.548;2022-10-16T03:46:17;16.90;;;11.30;;
12135;SDS011;6131;56.420;15.548;2022-10-16T03:48:43;17.20;;;12.03;;
12135;SDS011;6131;56.420;15.548;2022-10-16T03:51:09;17.27;;;13.00;;
12135;SDS011;6131;56.420;15.548;2022-10-16T03:53:35;16.37;;;11.73;;
12135;SDS011;6131;56.420;15.548;2022-10-16T03:56:01;20.13;;;12.43;;
12135;SDS011;6131;56.420;15.548;2022-10-16T03:58:27;13.87;;;11.70;;
12135;SDS011;6131;56.420;15.548;2022-10-16T04:00:53;18.07;;;11.47;;
12135;SDS011;6131;56.420;15.548;2022-10-16T04:03:19;15.73;;;10.87;;
12135;SDS011;6131;56.420;15.548;2022-10-16T04:05:46;14.50;;;10.43;;
12135;SDS011;6131;56.420;15.548;2022-10-16T04:08:12;15.87;;;10.77;;
12135;SDS011;6131;56.420;15.548;2022-10-16T04:10:38;13.80;;;10.83;;
12135;SDS011;6131;56.420;15.548;2022-10-16T04:13:04;14.33;;;10.53;;
12135;SDS011;6131;56.420;15.548;2022-10-16T04:15:30;14.20;;;10.17;;
12135;SDS011;6131;56.420;15.548;2022-10-16T04:17:56;11.87;;;9.43;;
12135;SDS011;6131;56.420;15.548;2022-10-16T04:20:22;16.07;;;10.23;;
12135;SDS011;6131;56.420;15.548;2022-10-16T04:22:48;13.13;;;10.00;;
12135;SDS011;6131;56.420;15.548;2022-10-16T04:25:14;13.00;;;9.70;;
12135;SDS011;6131;56.420;15.548;2022-10-16T04:27:40;12.97;;;9.90;;
12135;SDS011;6131;56.420;15.548;2022-10-16T04:30:06;12.50;;;10.33;;
12135;SDS011;6131;56.420;15.548;2022-10-16T04:32:32;13.90;;;10.27;;
12135;SDS011;6131;56.420;15.548;2022-10-16T04:34:58;12.43;;;10.20;;
12135;SDS011;6131;56.420;15.548;2022-10-16T04:37:25;12.73;;;10.00;;
12135;SDS011;6131;56.420;15.548;2022-10-16T04:39:51;12.30;;;9.93;;
12135;SDS011;6131;56.420;15.548;2022-10-16T04:42:17;15.60;;;9.70;;
12135;SDS011;6131;56.420;15.548;2022-10-16T04:44:43;14.20;;;10.67;;
12135;SDS011;6131;56.420;15.548;2022-10-16T04:47:09;12.83;;;10.10;;
12135;SDS011;6131;56.420;15.548;2022-10-16T04:49:35;12.93;;;9.23;;
12135;SDS011;6131;56.420;15.548;2022-10-16T04:52:01;12.73;;;10.43;;
12135;SDS011;6131;56.420;15.548;2022-10-16T04:54:27;14.83;;;9.90;;
12135;SDS011;6131;56.420;15.548;2022-10-16T04:56:53;14.43;;;10.90;;
12135;SDS011;6131;56.420;15.548;2022-10-16T04:59:19;15.50;;;11.00;;
12135;SDS011;6131;56.420;15.548;2022-10-16T05:01:45;14.87;;;10.70;;
12135;SDS011;6131;56.420;15.548;2022-10-16T05:04:11;15.50;;;10.97;;
12135;SDS011;6131;56.420;15.548;2022-10-16T05:06:38;14.70;;;10.73;;
12135;SDS011;6131;56.420;15.548;2022-10-16T05:09:04;15.90;;;11.50;;
12135;SDS011;6131;56.420;15.548;2022-10-16T05:11:31;16.97;;;10.93;;
12135;SDS011;6131;56.420;15.548;2022-10-16T05:13:57;18.97;;;11.87;;
12135;SDS011;6131;56.420;15.548;2022-10-16T05:16:23;17.07;;;12.57;;
12135;SDS011;6131;56.420;15.548;2022-10-16T05:18:49;18.13;;;12.37;;
12135;SDS011;6131;56.420;15.548;2022-10-16T05:21:16;17.33;;;12.00;;
12135;SDS011;6131;56.420;15.548;2022-10-16T05:23:42;18.00;;;12.53;;
12135;SDS011;6131;56.420;15.548;2022-10-16T05:26:08;17.67;;;11.37;;
12135;SDS011;6131;56.420;15.548;2022-10-16T05:28:34;19.47;;;11.80;;
12135;SDS011;6131;56.420;15.548;2022-10-16T05:31:04;17.83;;;12.17;;
12135;SDS011;6131;56.420;15.548;2022-10-16T05:33:30;18.90;;;11.80;;
12135;SDS011;6131;56.420;15.548;2022-10-16T05:35:56;20.47;;;12.03;;
12135;SDS011;6131;56.420;15.548;2022-10-16T05:38:22;17.33;;;12.07;;
12135;SDS011;6131;56.420;15.548;2022-10-16T05:40:51;18.47;;;12.37;;
12135;SDS011;6131;56.420;15.548;2022-10-16T05:43:17;20.37;;;12.37;;
12135;SDS011;6131;56.420;15.548;2022-10-16T05:45:43;16.47;;;11.87;;
12135;SDS011;6131;56.420;15.548;2022-10-16T05:48:09;18.03;;;12.27;;
12135;SDS011;6131;56.420;15.548;2022-10-16T05:50:35;15.97;;;11.93;;
12135;SDS011;6131;56.420;15.548;2022-10-16T05:53:01;19.17;;;12.70;;
12135;SDS011;6131;56.420;15.548;2022-10-16T05:55:27;18.27;;;11.43;;
12135;SDS011;6131;56.420;15.548;2022-10-16T05:57:54;16.47;;;11.63;;
12135;SDS011;6131;56.420;15.548;2022-10-16T06:00:20;19.17;;;11.97;;
12135;SDS011;6131;56.420;15.548;2022-10-16T06:02:46;20.57;;;12.80;;
12135;SDS011;6131;56.420;15.548;2022-10-16T06:05:12;16.60;;;11.40;;
12135;SDS011;6131;56.420;15.548;2022-10-16T06:07:38;17.57;;;12.03;;
12135;SDS011;6131;56.420;15.548;2022-10-16T06:10:04;18.53;;;12.97;;
12135;SDS011;6131;56.420;15.548;2022-10-16T06:12:30;25.23;;;14.00;;
12135;SDS011;6131;56.420;15.548;2022-10-16T06:14:56;21.60;;;14.37;;
12135;SDS011;6131;56.420;15.548;2022-10-16T06:17:22;23.60;;;13.67;;
12135;SDS011;6131;56.420;15.548;2022-10-16T06:19:48;21.40;;;14.27;;
12135;SDS011;6131;56.420;15.548;2022-10-16T06:22:14;23.07;;;13.43;;
12135;SDS011;6131;56.420;15.548;2022-10-16T06:24:41;23.53;;;13.63;;
12135;SDS011;6131;56.420;15.548;2022-10-16T06:27:06;26.00;;;13.00;;
12135;SDS011;6131;56.420;15.548;2022-10-16T06:29:32;18.70;;;13.10;;
12135;SDS011;6131;56.420;15.548;2022-10-16T06:31:58;17.00;;;12.37;;
12135;SDS011;6131;56.420;15.548;2022-10-16T06:34:24;20.47;;;13.13;;
12135;SDS011;6131;56.420;15.548;2022-10-16T06:36:50;16.00;;;12.33;;
12135;SDS011;6131;56.420;15.548;2022-10-16T06:39:16;22.83;;;11.73;;
12135;SDS011;6131;56.420;15.548;2022-10-16T06:41:42;19.20;;;12.63;;
12135;SDS011;6131;56.420;15.548;2022-10-16T06:44:08;17.37;;;12.03;;
12135;SDS011;6131;56.420;15.548;2022-10-16T06:46:34;18.50;;;12.10;;
12135;SDS011;6131;56.420;15.548;2022-10-16T06:49:00;19.23;;;11.83;;
12135;SDS011;6131;56.420;15.548;2022-10-16T06:51:26;17.27;;;11.57;;
12135;SDS011;6131;56.420;15.548;2022-10-16T06:53:53;17.10;;;11.73;;
12135;SDS011;6131;56.420;15.548;2022-10-16T06:56:25;17.33;;;12.03;;
12135;SDS011;6131;56.420;15.548;2022-10-16T06:58:51;19.30;;;12.37;;
12135;SDS011;6131;56.420;15.548;2022-10-16T07:01:19;20.80;;;13.40;;
12135;SDS011;6131;56.420;15.548;2022-10-16T07:03:45;22.47;;;13.17;;
12135;SDS011;6131;56.420;15.548;2022-10-16T07:06:12;19.10;;;14.03;;
12135;SDS011;6131;56.420;15.548;2022-10-16T07:08:39;19.97;;;12.37;;
12135;SDS011;6131;56.420;15.548;2022-10-16T07:11:07;22.17;;;13.50;;
12135;SDS011;6131;56.420;15.548;2022-10-16T07:13:34;21.60;;;12.47;;
12135;SDS011;6131;56.420;15.548;2022-10-16T07:16:04;29.23;;;20.47;;
12135;SDS011;6131;56.420;15.548;2022-10-16T07:18:30;18.13;;;13.17;;
12135;SDS011;6131;56.420;15.548;2022-10-16T07:21:02;19.37;;;12.83;;
12135;SDS011;6131;56.420;15.548;2022-10-16T07:23:28;20.50;;;12.10;;
12135;SDS011;6131;56.420;15.548;2022-10-16T07:25:54;21.10;;;14.50;;
12135;SDS011;6131;56.420;15.548;2022-10-16T07:28:20;15.33;;;11.00;;
12135;SDS011;6131;56.420;15.548;2022-10-16T07:30:46;18.00;;;11.77;;
12135;SDS011;6131;56.420;15.548;2022-10-16T07:33:12;15.80;;;10.70;;
12135;SDS011;6131;56.420;15.548;2022-10-16T07:35:47;15.80;;;10.10;;
12135;SDS011;6131;56.420;15.548;2022-10-16T07:38:13;13.27;;;9.60;;
12135;SDS011;6131;56.420;15.548;2022-10-16T07:40:38;11.83;;;8.70;;
12135;SDS011;6131;56.420;15.548;2022-10-16T07:43:04;12.80;;;8.57;;
12135;SDS011;6131;56.420;15.548;2022-10-16T07:45:30;11.73;;;8.77;;
12135;SDS011;6131;56.420;15.548;2022-10-16T07:47:56;14.03;;;8.27;;
12135;SDS011;6131;56.420;15.548;2022-10-16T07:50:22;16.00;;;10.40;;
12135;SDS011;6131;56.420;15.548;2022-10-16T07:52:48;16.40;;;12.23;;
12135;SDS011;6131;56.420;15.548;2022-10-16T07:55:14;11.03;;;7.60;;
12135;SDS011;6131;56.420;15.548;2022-10-16T07:57:40;14.23;;;7.70;;
12135;SDS011;6131;56.420;15.548;2022-10-16T08:00:06;14.43;;;8.17;;
12135;SDS011;6131;56.420;15.548;2022-10-16T08:02:38;9.47;;;6.33;;
12135;SDS011;6131;56.420;15.548;2022-10-16T08:05:04;11.10;;;6.53;;
12135;SDS011;6131;56.420;15.548;2022-10-16T08:07:30;9.43;;;6.40;;
12135;SDS011;6131;56.420;15.548;2022-10-16T08:09:56;8.47;;;6.40;;
12135;SDS011;6131;56.420;15.548;2022-10-16T08:12:23;11.00;;;5.90;;
12135;SDS011;6131;56.420;15.548;2022-10-16T08:14:49;10.53;;;5.93;;
12135;SDS011;6131;56.420;15.548;2022-10-16T08:17:15;11.43;;;5.90;;
12135;SDS011;6131;56.420;15.548;2022-10-16T08:19:45;8.90;;;6.37;;
12135;SDS011;6131;56.420;15.548;2022-10-16T08:22:12;8.70;;;5.23;;
12135;SDS011;6131;56.420;15.548;2022-10-16T08:24:38;8.37;;;5.60;;
12135;SDS011;6131;56.420;15.548;2022-10-16T08:27:04;8.27;;;5.30;;
12135;SDS011;6131;56.420;15.548;2022-10-16T08:29:30;10.53;;;5.60;;
12135;SDS011;6131;56.420;15.548;2022-10-16T08:31:56;10.83;;;5.50;;
12135;SDS011;6131;56.420;15.548;2022-10-16T08:34:22;9.27;;;4.90;;
12135;SDS011;6131;56.420;15.548;2022-10-16T08:36:48;8.77;;;4.93;;
12135;SDS011;6131;56.420;15.548;2022-10-16T08:39:15;8.80;;;4.90;;
12135;SDS011;6131;56.420;15.548;2022-10-16T08:47:40;9.03;;;4.00;;
12135;SDS011;6131;56.420;15.548;2022-10-16T08:50:10;6.97;;;3.80;;
12135;SDS011;6131;56.420;15.548;2022-10-16T08:52:39;7.23;;;3.57;;
12135;SDS011;6131;56.420;15.548;2022-10-16T08:55:06;6.47;;;3.60;;
12135;SDS011;6131;56.420;15.548;2022-10-16T08:57:32;7.00;;;3.70;;
12135;SDS011;6131;56.420;15.548;2022-10-16T09:00:08;6.03;;;3.10;;
12135;SDS011;6131;56.420;15.548;2022-10-16T09:02:35;8.30;;;3.10;;
12135;SDS011;6131;56.420;15.548;2022-10-16T09:05:26;8.93;;;3.37;;
12135;SDS011;6131;56.420;15.548;2022-10-16T09:07:53;8.20;;;2.80;;
12135;SDS011;6131;56.420;15.548;2022-10-16T09:10:24;9.07;;;3.10;;
12135;SDS011;6131;56.420;15.548;2022-10-16T09:12:58;5.87;;;2.90;;
12135;SDS011;6131;56.420;15.548;2022-10-16T09:15:32;8.60;;;4.03;;
12135;SDS011;6131;56.420;15.548;2022-10-16T09:20:31;18.43;;;8.23;;
12135;SDS011;6131;56.420;15.548;2022-10-16T09:25:31;15.37;;;7.70;;
12135;SDS011;6131;56.420;15.548;2022-10-16T09:27:58;21.20;;;11.63;;
12135;SDS011;6131;56.420;15.548;2022-10-16T09:30:26;43.17;;;21.43;;
12135;SDS011;6131;56.420;15.548;2022-10-16T09:32:54;13.10;;;6.77;;
12135;SDS011;6131;56.420;15.548;2022-10-16T09:35:21;4.83;;;3.13;;
12135;SDS011;6131;56.420;15.548;2022-10-16T09:37:49;5.65;;;3.17;;
12135;SDS011;6131;56.420;15.548;2022-10-16T09:40:30;8.40;;;3.47;;
12135;SDS011;6131;56.420;15.548;2022-10-16T09:43:00;8.23;;;3.00;;
12135;SDS011;6131;56.420;15.548;2022-10-16T09:45:27;8.77;;;3.40;;
12135;SDS011;6131;56.420;15.548;2022-10-16T09:47:53;6.90;;;3.07;;
12135;SDS011;6131;56.420;15.548;2022-10-16T09:50:21;6.83;;;2.83;;
12135;SDS011;6131;56.420;15.548;2022-10-16T09:52:47;6.90;;;2.50;;
12135;SDS011;6131;56.420;15.548;2022-10-16T09:55:15;8.67;;;3.20;;
12135;SDS011;6131;56.420;15.548;2022-10-16T09:57:51;8.63;;;2.73;;
12135;SDS011;6131;56.420;15.548;2022-10-16T10:00:17;7.57;;;2.50;;
12135;SDS011;6131;56.420;15.548;2022-10-16T10:02:44;5.57;;;2.40;;
12135;SDS011;6131;56.420;15.548;2022-10-16T10:05:26;9.20;;;3.00;;
12135;SDS011;6131;56.420;15.548;2022-10-16T10:08:02;9.33;;;3.20;;
12135;SDS011;6131;56.420;15.548;2022-10-16T10:10:34;8.50;;;2.57;;
12135;SDS011;6131;56.420;15.548;2022-10-16T10:13:02;8.87;;;2.73;;
12135;SDS011;6131;56.420;15.548;2022-10-16T10:15:33;6.43;;;2.70;;
12135;SDS011;6131;56.420;15.548;2022-10-16T10:18:00;8.13;;;2.30;;
12135;SDS011;6131;56.420;15.548;2022-10-16T10:22:54;4.97;;;2.33;;
12135;SDS011;6131;56.420;15.548;2022-10-16T10:28:14;7.27;;;2.30;;
12135;SDS011;6131;56.420;15.548;2022-10-16T10:33:10;5.93;;;2.22;;
12135;SDS011;6131;56.420;15.548;2022-10-16T10:35:41;8.03;;;2.20;;
12135;SDS011;6131;56.420;15.548;2022-10-16T10:40:46;11.13;;;2.30;;
12135;SDS011;6131;56.420;15.548;2022-10-16T10:45:47;4.67;;;2.00;;
12135;SDS011;6131;56.420;15.548;2022-10-16T10:48:27;8.15;;;2.45;;
12135;SDS011;6131;56.420;15.548;2022-10-16T10:50:58;7.50;;;2.43;;
12135;SDS011;6131;56.420;15.548;2022-10-16T10:56:37;7.50;;;2.08;;
12135;SDS011;6131;56.420;15.548;2022-10-16T10:59:09;6.07;;;1.95;;
12135;SDS011;6131;56.420;15.548;2022-10-16T11:01:59;6.80;;;1.83;;
12135;SDS011;6131;56.420;15.548;2022-10-16T11:04:40;8.70;;;2.28;;
12135;SDS011;6131;56.420;15.548;2022-10-16T11:07:15;6.40;;;2.08;;
12135;SDS011;6131;56.420;15.548;2022-10-16T11:09:43;8.27;;;2.45;;
12135;SDS011;6131;56.420;15.548;2022-10-16T11:12:21;8.43;;;2.75;;
12135;SDS011;6131;56.420;15.548;2022-10-16T11:14:50;4.50;;;2.08;;
12135;SDS011;6131;56.420;15.548;2022-10-16T11:17:28;15.45;;;10.93;;
12135;SDS011;6131;56.420;15.548;2022-10-16T11:19:58;5.07;;;2.42;;
12135;SDS011;6131;56.420;15.548;2022-10-16T11:22:32;6.60;;;2.00;;
12135;SDS011;6131;56.420;15.548;2022-10-16T11:27:48;6.35;;;2.13;;
12135;SDS011;6131;56.420;15.548;2022-10-16T11:30:26;7.38;;;2.03;;
12135;SDS011;6131;56.420;15.548;2022-10-16T11:35:37;6.05;;;2.45;;
12135;SDS011;6131;56.420;15.548;2022-10-16T11:38:09;6.43;;;1.65;;
12135;SDS011;6131;56.420;15.548;2022-10-16T11:40:37;6.13;;;2.10;;
12135;SDS011;6131;56.420;15.548;2022-10-16T11:43:17;3.83;;;1.58;;
12135;SDS011;6131;56.420;15.548;2022-10-16T11:45:46;7.55;;;1.90;;
12135;SDS011;6131;56.420;15.548;2022-10-16T11:50:50;7.47;;;2.08;;
12135;SDS011;6131;56.420;15.548;2022-10-16T11:53:21;6.20;;;1.95;;
12135;SDS011;6131;56.420;15.548;2022-10-16T11:55:49;6.78;;;1.98;;
12135;SDS011;6131;56.420;15.548;2022-10-16T12:03:44;4.55;;;1.85;;
12135;SDS011;6131;56.420;15.548;2022-10-16T12:08:37;5.10;;;1.70;;
12135;SDS011;6131;56.420;15.548;2022-10-16T12:11:07;12.23;;;2.00;;
12135;SDS011;6131;56.420;15.548;2022-10-16T12:13:34;6.18;;;1.83;;
12135;SDS011;6131;56.420;15.548;2022-10-16T12:16:05;8.00;;;2.35;;
12135;SDS011;6131;56.420;15.548;2022-10-16T12:18:31;4.65;;;1.88;;
12135;SDS011;6131;56.420;15.548;2022-10-16T12:20:57;6.63;;;3.03;;
12135;SDS011;6131;56.420;15.548;2022-10-16T12:23:24;7.47;;;1.80;;
12135;SDS011;6131;56.420;15.548;2022-10-16T12:25:57;4.55;;;1.48;;
12135;SDS011;6131;56.420;15.548;2022-10-16T12:28:27;4.38;;;2.00;;
12135;SDS011;6131;56.420;15.548;2022-10-16T12:30:58;4.63;;;1.80;;
12135;SDS011;6131;56.420;15.548;2022-10-16T12:33:25;3.72;;;1.80;;
12135;SDS011;6131;56.420;15.548;2022-10-16T12:35:52;7.80;;;2.58;;
12135;SDS011;6131;56.420;15.548;2022-10-16T12:38:28;4.32;;;1.70;;
12135;SDS011;6131;56.420;15.548;2022-10-16T12:41:00;7.72;;;1.90;;
12135;SDS011;6131;56.420;15.548;2022-10-16T12:46:06;4.85;;;1.60;;
12135;SDS011;6131;56.420;15.548;2022-10-16T12:48:46;4.95;;;1.48;;
12135;SDS011;6131;56.420;15.548;2022-10-16T12:54:04;5.40;;;2.00;;
12135;SDS011;6131;56.420;15.548;2022-10-16T12:59:15;6.35;;;1.60;;
12135;SDS011;6131;56.420;15.548;2022-10-16T13:01:49;6.00;;;2.17;;
12135;SDS011;6131;56.420;15.548;2022-10-16T13:04:29;6.88;;;2.10;;
12135;SDS011;6131;56.420;15.548;2022-10-16T13:22:06;4.82;;;1.67;;
12135;SDS011;6131;56.420;15.548;2022-10-16T13:29:35;4.20;;;1.20;;
12135;SDS011;6131;56.420;15.548;2022-10-16T13:32:01;5.80;;;1.67;;
12135;SDS011;6131;56.420;15.548;2022-10-16T13:34:33;5.43;;;1.20;;
12135;SDS011;6131;56.420;15.548;2022-10-16T13:37:15;4.85;;;1.23;;
12135;SDS011;6131;56.420;15.548;2022-10-16T13:39:42;5.13;;;1.55;;
12135;SDS011;6131;56.420;15.548;2022-10-16T13:42:16;5.75;;;1.40;;
12135;SDS011;6131;56.420;15.548;2022-10-16T13:44:46;4.35;;;1.30;;
12135;SDS011;6131;56.420;15.548;2022-10-16T13:47:20;6.75;;;1.42;;
12135;SDS011;6131;56.420;15.548;2022-10-16T13:49:46;4.60;;;1.33;;
12135;SDS011;6131;56.420;15.548;2022-10-16T13:52:19;4.20;;;1.30;;
12135;SDS011;6131;56.420;15.548;2022-10-16T13:54:45;5.10;;;1.23;;
12135;SDS011;6131;56.420;15.548;2022-10-16T13:57:15;8.15;;;1.63;;
12135;SDS011;6131;56.420;15.548;2022-10-16T13:59:42;5.63;;;1.42;;
12135;SDS011;6131;56.420;15.548;2022-10-16T14:02:13;4.97;;;1.50;;
12135;SDS011;6131;56.420;15.548;2022-10-16T14:04:40;7.85;;;1.50;;
12135;SDS011;6131;56.420;15.548;2022-10-16T14:07:11;7.13;;;1.42;;
12135;SDS011;6131;56.420;15.548;2022-10-16T14:09:38;5.38;;;1.10;;
12135;SDS011;6131;56.420;15.548;2022-10-16T14:12:08;4.68;;;1.23;;
12135;SDS011;6131;56.420;15.548;2022-10-16T14:14:44;4.78;;;1.40;;
12135;SDS011;6131;56.420;15.548;2022-10-16T14:17:15;3.78;;;1.20;;
12135;SDS011;6131;56.420;15.548;2022-10-16T14:19:44;3.05;;;1.30;;
12135;SDS011;6131;56.420;15.548;2022-10-16T14:22:22;4.65;;;1.38;;
12135;SDS011;6131;56.420;15.548;2022-10-16T14:24:50;4.75;;;1.50;;
12135;SDS011;6131;56.420;15.548;2022-10-16T14:27:29;4.57;;;1.20;;
12135;SDS011;6131;56.420;15.548;2022-10-16T14:30:12;4.03;;;1.20;;
12135;SDS011;6131;56.420;15.548;2022-10-16T14:32:40;4.25;;;1.13;;
12135;SDS011;6131;56.420;15.548;2022-10-16T14:35:21;3.72;;;1.10;;
12135;SDS011;6131;56.420;15.548;2022-10-16T14:37:50;6.22;;;1.27;;
12135;SDS011;6131;56.420;15.548;2022-10-16T14:40:17;4.35;;;1.13;;
12135;SDS011;6131;56.420;15.548;2022-10-16T14:42:43;5.07;;;1.13;;
12135;SDS011;6131;56.420;15.548;2022-10-16T14:45:10;4.93;;;1.30;;
12135;SDS011;6131;56.420;15.548;2022-10-16T14:47:37;5.82;;;1.27;;
12135;SDS011;6131;56.420;15.548;2022-10-16T14:50:04;2.90;;;1.17;;
12135;SDS011;6131;56.420;15.548;2022-10-16T14:52:30;4.57;;;1.17;;
12135;SDS011;6131;56.420;15.548;2022-10-16T14:54:56;4.43;;;1.43;;
12135;SDS011;6131;56.420;15.548;2022-10-16T14:57:23;2.60;;;1.27;;
12135;SDS011;6131;56.420;15.548;2022-10-16T14:59:50;7.03;;;1.70;;
12135;SDS011;6131;56.420;15.548;2022-10-16T15:04:48;6.60;;;1.27;;
12135;SDS011;6131;56.420;15.548;2022-10-16T15:07:14;4.17;;;1.07;;
12135;SDS011;6131;56.420;15.548;2022-10-16T15:09:40;2.80;;;1.20;;
12135;SDS011;6131;56.420;15.548;2022-10-16T15:12:06;3.97;;;1.20;;
12135;SDS011;6131;56.420;15.548;2022-10-16T15:14:32;3.33;;;0.97;;
12135;SDS011;6131;56.420;15.548;2022-10-16T15:16:58;2.13;;;0.60;;
12135;SDS011;6131;56.420;15.548;2022-10-16T15:19:24;3.70;;;1.00;;
12135;SDS011;6131;56.420;15.548;2022-10-16T15:21:50;3.47;;;0.70;;
12135;SDS011;6131;56.420;15.548;2022-10-16T15:24:17;2.63;;;0.90;;
12135;SDS011;6131;56.420;15.548;2022-10-16T15:26:43;2.83;;;0.90;;
12135;SDS011;6131;56.420;15.548;2022-10-16T15:29:11;1.33;;;0.63;;
12135;SDS011;6131;56.420;15.548;2022-10-16T15:31:37;2.63;;;0.87;;
12135;SDS011;6131;56.420;15.548;2022-10-16T15:34:03;3.30;;;1.70;;
12135;SDS011;6131;56.420;15.548;2022-10-16T15:36:34;2.33;;;0.60;;
12135;SDS011;6131;56.420;15.548;2022-10-16T15:39:02;1.30;;;0.57;;
12135;SDS011;6131;56.420;15.548;2022-10-16T15:41:28;4.63;;;1.00;;
12135;SDS011;6131;56.420;15.548;2022-10-16T15:43:54;3.20;;;1.00;;
12135;SDS011;6131;56.420;15.548;2022-10-16T15:46:21;4.13;;;0.90;;
12135;SDS011;6131;56.420;15.548;2022-10-16T15:48:48;3.03;;;0.70;;
12135;SDS011;6131;56.420;15.548;2022-10-16T15:51:14;4.17;;;1.10;;
12135;SDS011;6131;56.420;15.548;2022-10-16T15:53:41;4.80;;;0.90;;
12135;SDS011;6131;56.420;15.548;2022-10-16T15:56:07;3.63;;;1.10;;
12135;SDS011;6131;56.420;15.548;2022-10-16T15:58:34;3.10;;;0.90;;
12135;SDS011;6131;56.420;15.548;2022-10-16T16:01:00;2.97;;;1.10;;
12135;SDS011;6131;56.420;15.548;2022-10-16T16:03:27;4.10;;;1.13;;
12135;SDS011;6131;56.420;15.548;2022-10-16T16:05:53;2.33;;;0.80;;
12135;SDS011;6131;56.420;15.548;2022-10-16T16:08:19;4.57;;;0.90;;
12135;SDS011;6131;56.420;15.548;2022-10-16T16:10:45;7.30;;;0.80;;
12135;SDS011;6131;56.420;15.548;2022-10-16T16:13:12;2.60;;;0.80;;